Time;durP1;ratioP1;P1;durP2;ratioP2;P2;SDS_P1;SDS_P2;PMS_P1;PMS_P2;Temp;Humidity;BMP_temperature;BMP_pressure;BME280_temperature;BME280_humidity;BME280_pressure;Samples;Min_cycle;Max_cycle;Signal;HPM_P1;HPM_P2
2022/04/10 00:00:00;;;;;;;2.90;0.98;;;;;;;;;;5056545;28;20497;-79
2022/04/10 00:02:26;;;;;;;2.00;0.90;;;;;;;;;;5072715;28;20044;-79
2022/04/10 00:04:51;;;;;;;2.65;1.25;;;;;;;;;;5041129;28;20044;-79
2022/04/10 00:07:17;;;;;;;1.75;0.95;;;;;;;;;;5056557;28;20452;-78
2022/04/10 00:09:42;;;;;;;2.38;1.05;;;;;;;;;;5073501;28;20725;-79
2022/04/10 00:12:08;;;;;;;2.75;1.33;;;;;;;;;;5073223;28;20039;-79
2022/04/10 00:14:33;;;;;;;2.58;1.05;;;;;;;;;;5086531;28;20399;-79
2022/04/10 00:16:59;;;;;;;2.22;1.02;;;;;;;;;;5063308;28;20067;-79
2022/04/10 00:19:24;;;;;;;3.38;1.30;;;;;;;;;;5073560;28;20071;-79
2022/04/10 00:21:50;;;;;;;2.90;1.17;;;;;;;;;;5056525;28;20397;-79
2022/04/10 00:24:15;;;;;;;2.33;1.15;;;;;;;;;;5042946;28;20505;-79
2022/04/10 00:26:40;;;;;;;3.13;0.80;;;;;;;;;;5077186;28;20823;-79
2022/04/10 00:29:06;;;;;;;2.42;1.00;;;;;;;;;;5077320;28;20062;-79
2022/04/10 00:31:32;;;;;;;3.10;1.05;;;;;;;;;;5060391;28;20401;-78
2022/04/10 00:33:57;;;;;;;2.10;1.08;;;;;;;;;;5077466;28;20035;-79
2022/04/10 00:36:22;;;;;;;2.33;0.95;;;;;;;;;;5060638;28;20119;-79
2022/04/10 00:38:48;;;;;;;2.65;1.20;;;;;;;;;;5060094;28;20057;-79
2022/04/10 00:41:13;;;;;;;3.28;0.98;;;;;;;;;;5040412;28;20027;-79
2022/04/10 00:43:40;;;;;;;2.67;1.20;;;;;;;;;;5057104;28;20040;-79
2022/04/10 00:46:05;;;;;;;1.52;0.80;;;;;;;;;;5023979;28;20390;-79
2022/04/10 00:48:31;;;;;;;2.30;1.30;;;;;;;;;;5057141;28;20036;-79
2022/04/10 00:53:41;;;;;;;2.00;0.73;;;;;;;;;;5076045;28;20039;-79
2022/04/10 00:56:06;;;;;;;3.20;1.00;;;;;;;;;;5065398;28;20035;-79
2022/04/10 00:58:32;;;;;;;1.65;0.95;;;;;;;;;;5060058;28;20046;-79
2022/04/10 01:00:58;;;;;;;2.72;0.90;;;;;;;;;;5059928;28;20448;-79
2022/04/10 01:03:23;;;;;;;3.45;1.15;;;;;;;;;;5060313;28;20039;-79
2022/04/10 01:05:48;;;;;;;2.78;0.93;;;;;;;;;;5060297;28;20031;-79
2022/04/10 01:08:14;;;;;;;3.35;1.10;;;;;;;;;;5060217;28;20036;-79
2022/04/10 01:10:41;;;;;;;2.88;1.10;;;;;;;;;;5076677;28;20027;-79
2022/04/10 01:13:07;;;;;;;2.50;1.10;;;;;;;;;;5060511;28;20054;-79
2022/04/10 01:15:32;;;;;;;2.65;0.90;;;;;;;;;;5079291;28;20073;-79
2022/04/10 01:17:58;;;;;;;2.50;1.10;;;;;;;;;;5043711;28;20059;-79
2022/04/10 01:20:23;;;;;;;2.78;1.02;;;;;;;;;;5044173;28;20058;-78
2022/04/10 01:22:49;;;;;;;2.75;0.93;;;;;;;;;;5060550;28;20083;-79
2022/04/10 01:25:14;;;;;;;1.50;0.82;;;;;;;;;;5063675;28;20032;-79
2022/04/10 01:27:40;;;;;;;2.00;0.80;;;;;;;;;;5064173;28;20087;-79
2022/04/10 01:30:07;;;;;;;2.88;1.25;;;;;;;;;;5079967;28;20071;-79
2022/04/10 01:32:32;;;;;;;2.55;1.27;;;;;;;;;;5080693;28;20036;-79
2022/04/10 01:34:58;;;;;;;2.30;1.08;;;;;;;;;;5080737;28;20120;-79
2022/04/10 01:37:24;;;;;;;3.20;1.17;;;;;;;;;;5063892;28;20524;-79
2022/04/10 01:39:49;;;;;;;1.95;0.85;;;;;;;;;;5061632;28;20039;-79
2022/04/10 01:42:14;;;;;;;2.15;1.17;;;;;;;;;;5027529;28;20359;-78
2022/04/10 01:44:43;;;;;;;2.67;1.05;;;;;;;;;;5043156;28;20441;-79
2022/04/10 01:47:09;;;;;;;1.73;0.75;;;;;;;;;;5077019;28;20032;-79
2022/04/10 01:49:35;;;;;;;1.77;0.82;;;;;;;;;;5043684;28;20040;-79
2022/04/10 01:52:00;;;;;;;2.67;1.05;;;;;;;;;;5059953;28;20047;-79
2022/04/10 01:54:26;;;;;;;2.53;1.20;;;;;;;;;;5026763;28;20036;-79
2022/04/10 01:56:51;;;;;;;3.70;1.50;;;;;;;;;;5051996;28;20036;-79
2022/04/10 01:59:16;;;;;;;1.88;1.00;;;;;;;;;;5042779;28;20056;-79
2022/04/10 02:01:43;;;;;;;2.08;1.20;;;;;;;;;;5043562;28;20406;-79
2022/04/10 02:04:08;;;;;;;2.05;0.95;;;;;;;;;;5043324;28;20047;-79
2022/04/10 02:06:34;;;;;;;4.05;1.45;;;;;;;;;;5059999;28;20059;-79
2022/04/10 02:09:00;;;;;;;2.08;0.95;;;;;;;;;;5059552;28;20054;-79
2022/04/10 02:11:25;;;;;;;4.57;1.55;;;;;;;;;;5059775;28;20383;-79
2022/04/10 02:13:50;;;;;;;2.38;0.90;;;;;;;;;;5042900;28;20406;-79
2022/04/10 02:16:17;;;;;;;2.60;1.33;;;;;;;;;;5044382;28;20050;-79
2022/04/10 02:18:43;;;;;;;2.45;0.98;;;;;;;;;;5076385;28;20043;-80
2022/04/10 02:21:09;;;;;;;3.50;1.25;;;;;;;;;;5076439;28;20036;-79
2022/04/10 02:23:34;;;;;;;2.17;0.98;;;;;;;;;;5063080;28;20040;-79
2022/04/10 02:26:00;;;;;;;2.03;0.88;;;;;;;;;;5062154;28;20040;-79
2022/04/10 02:28:25;;;;;;;1.45;0.70;;;;;;;;;;5062255;28;20089;-79
2022/04/10 02:30:51;;;;;;;2.20;0.93;;;;;;;;;;5079355;28;20032;-79
2022/04/10 02:33:16;;;;;;;2.00;0.82;;;;;;;;;;5079566;28;20420;-79
2022/04/10 02:35:43;;;;;;;2.17;0.90;;;;;;;;;;5079484;28;20039;-79
2022/04/10 02:38:08;;;;;;;2.60;0.90;;;;;;;;;;5079478;28;20489;-79
2022/04/10 02:40:34;;;;;;;2.33;1.10;;;;;;;;;;5046165;28;20035;-79
2022/04/10 02:42:59;;;;;;;1.75;0.95;;;;;;;;;;5062116;28;20040;-79
2022/04/10 02:45:25;;;;;;;1.35;0.70;;;;;;;;;;5079365;28;20043;-79
2022/04/10 02:47:50;;;;;;;1.95;1.10;;;;;;;;;;5062592;28;20425;-79
2022/04/10 02:50:16;;;;;;;1.63;0.90;;;;;;;;;;5062551;28;20039;-79
2022/04/10 02:52:41;;;;;;;2.53;0.90;;;;;;;;;;5045598;28;20421;-79
2022/04/10 02:55:08;;;;;;;2.00;0.77;;;;;;;;;;5079128;28;20055;-79
2022/04/10 02:57:34;;;;;;;2.05;0.77;;;;;;;;;;5058432;28;20038;-79
2022/04/10 02:59:59;;;;;;;2.47;1.20;;;;;;;;;;5058584;28;20036;-79
2022/04/10 03:02:25;;;;;;;1.48;0.70;;;;;;;;;;5042230;28;20406;-80
2022/04/10 03:04:50;;;;;;;2.10;0.88;;;;;;;;;;5042086;28;20413;-79
2022/04/10 03:07:16;;;;;;;2.03;0.75;;;;;;;;;;5042256;28;20063;-79
2022/04/10 03:09:41;;;;;;;2.75;0.80;;;;;;;;;;5041785;28;20107;-79
2022/04/10 03:12:08;;;;;;;1.23;0.60;;;;;;;;;;5041725;28;20036;-79
2022/04/10 03:14:34;;;;;;;1.90;0.80;;;;;;;;;;5042086;28;20028;-79
2022/04/10 03:16:59;;;;;;;2.97;0.82;;;;;;;;;;5065401;28;20043;-79
2022/04/10 03:19:25;;;;;;;2.22;0.70;;;;;;;;;;5058231;28;20043;-79
2022/04/10 03:21:51;;;;;;;1.58;0.90;;;;;;;;;;5058215;28;20043;-79
2022/04/10 03:24:16;;;;;;;2.92;0.82;;;;;;;;;;5051743;28;20036;-79
2022/04/10 03:26:42;;;;;;;1.95;0.70;;;;;;;;;;5061356;28;20126;-79
2022/04/10 03:29:07;;;;;;;2.00;0.80;;;;;;;;;;5078290;28;20459;-79
2022/04/10 03:31:33;;;;;;;3.33;0.80;;;;;;;;;;5078331;28;20050;-79
2022/04/10 03:33:58;;;;;;;2.17;0.63;;;;;;;;;;5061501;28;20031;-79
2022/04/10 03:36:23;;;;;;;3.00;1.08;;;;;;;;;;5061089;28;20398;-79
2022/04/10 03:38:50;;;;;;;2.83;0.95;;;;;;;;;;5077659;28;20402;-79
2022/04/10 03:41:15;;;;;;;2.08;0.77;;;;;;;;;;5077623;28;20031;-79
2022/04/10 03:43:41;;;;;;;1.63;0.77;;;;;;;;;;5061270;28;20085;-80
2022/04/10 03:46:06;;;;;;;1.33;0.70;;;;;;;;;;5044649;28;20083;-79
2022/04/10 03:48:32;;;;;;;2.20;0.95;;;;;;;;;;5077962;28;20040;-79
2022/04/10 03:50:57;;;;;;;1.70;0.88;;;;;;;;;;5078169;28;20398;-79
2022/04/10 03:53:23;;;;;;;1.70;0.80;;;;;;;;;;5077523;28;20043;-79
2022/04/10 03:55:48;;;;;;;2.08;0.93;;;;;;;;;;5094268;28;20076;-79
2022/04/10 03:58:14;;;;;;;2.22;0.88;;;;;;;;;;5077735;28;20405;-79
2022/04/10 04:00:40;;;;;;;2.38;0.90;;;;;;;;;;5061145;28;20040;-79
2022/04/10 04:03:05;;;;;;;3.38;1.00;;;;;;;;;;5077634;28;20412;-79
2022/04/10 04:05:31;;;;;;;1.77;0.70;;;;;;;;;;5061176;28;20438;-79
2022/04/10 04:07:56;;;;;;;1.95;0.95;;;;;;;;;;5077184;28;20126;-79
2022/04/10 04:10:22;;;;;;;1.48;0.65;;;;;;;;;;5077364;28;20118;-79
2022/04/10 04:12:47;;;;;;;1.50;1.00;;;;;;;;;;5077540;28;20027;-79
2022/04/10 04:15:13;;;;;;;1.20;0.57;;;;;;;;;;5077451;28;20038;-79
2022/04/10 04:17:38;;;;;;;2.20;0.70;;;;;;;;;;5086325;28;20130;-79
2022/04/10 04:20:07;;;;;;;2.75;0.70;;;;;;;;;;5057386;28;20414;-80
2022/04/10 04:22:36;;;;;;;1.88;0.98;;;;;;;;;;5056978;28;20044;-79
2022/04/10 04:25:06;;;;;;;2.20;0.90;;;;;;;;;;5056723;28;20501;-79
2022/04/10 04:27:31;;;;;;;1.70;0.70;;;;;;;;;;5061039;28;20031;-79
2022/04/10 04:29:57;;;;;;;1.73;0.68;;;;;;;;;;5060487;28;20460;-79
2022/04/10 04:32:22;;;;;;;1.75;0.75;;;;;;;;;;5043859;28;20481;-79
2022/04/10 04:34:49;;;;;;;1.35;0.60;;;;;;;;;;5060510;28;20059;-79
2022/04/10 04:37:14;;;;;;;1.85;0.95;;;;;;;;;;5044039;28;20038;-79
2022/04/10 04:39:40;;;;;;;1.27;0.70;;;;;;;;;;5059755;28;20444;-79
2022/04/10 04:42:06;;;;;;;2.38;0.70;;;;;;;;;;5040387;28;20494;-79
2022/04/10 04:44:31;;;;;;;1.45;0.82;;;;;;;;;;5057174;28;20028;-79
2022/04/10 04:46:57;;;;;;;1.98;0.77;;;;;;;;;;5040713;28;20505;-79
2022/04/10 04:49:23;;;;;;;3.30;0.98;;;;;;;;;;5039883;28;20064;-79
2022/04/10 04:51:49;;;;;;;2.45;1.10;;;;;;;;;;5023467;28;20047;-79
2022/04/10 04:54:14;;;;;;;1.35;0.63;;;;;;;;;;5056267;28;20551;-79
2022/04/10 04:56:40;;;;;;;1.98;0.90;;;;;;;;;;5047463;28;20081;-79
2022/04/10 04:59:05;;;;;;;2.35;1.00;;;;;;;;;;5040101;28;20044;-79
2022/04/10 05:01:31;;;;;;;1.40;0.75;;;;;;;;;;5057160;28;20404;-79
2022/04/10 05:03:56;;;;;;;2.78;1.13;;;;;;;;;;5056848;28;20047;-79
2022/04/10 05:06:22;;;;;;;1.88;0.93;;;;;;;;;;5056671;28;20044;-79
2022/04/10 05:08:47;;;;;;;1.65;0.70;;;;;;;;;;5056401;28;20426;-80
2022/04/10 05:11:13;;;;;;;3.83;1.30;;;;;;;;;;5055839;28;20465;-79
2022/04/10 05:13:39;;;;;;;4.68;0.98;;;;;;;;;;5054643;28;20040;-79
2022/04/10 05:16:05;;;;;;;3.15;0.93;;;;;;;;;;5040378;28;20044;-79
2022/04/10 05:18:30;;;;;;;3.42;1.17;;;;;;;;;;5042790;28;20054;-79
2022/04/10 05:20:56;;;;;;;2.10;0.77;;;;;;;;;;5093132;28;20052;-79
2022/04/10 05:23:21;;;;;;;1.30;0.80;;;;;;;;;;5059765;28;20035;-78
2022/04/10 05:25:47;;;;;;;2.28;0.93;;;;;;;;;;5076489;28;20044;-79
2022/04/10 05:28:13;;;;;;;2.33;1.25;;;;;;;;;;5076758;28;20040;-78
2022/04/10 05:30:38;;;;;;;2.83;1.25;;;;;;;;;;5043702;28;20039;-79
2022/04/10 05:33:04;;;;;;;3.20;1.00;;;;;;;;;;5076818;28;20031;-79
2022/04/10 05:35:29;;;;;;;3.17;1.30;;;;;;;;;;5059803;28;20051;-79
2022/04/10 05:37:55;;;;;;;2.47;0.98;;;;;;;;;;5075972;28;20032;-79
2022/04/10 05:40:22;;;;;;;3.38;1.05;;;;;;;;;;5076297;28;20038;-79
2022/04/10 05:42:47;;;;;;;3.33;0.80;;;;;;;;;;5077286;28;20107;-79
2022/04/10 05:45:13;;;;;;;3.05;1.20;;;;;;;;;;5076527;28;20455;-79
2022/04/10 05:47:39;;;;;;;5.40;1.83;;;;;;;;;;5076596;28;20114;-79
2022/04/10 05:50:09;;;;;;;2.72;0.75;;;;;;;;;;5042944;28;20046;-79
2022/04/10 05:52:45;;;;;;;2.60;0.75;;;;;;;;;;5059771;28;20070;-80
2022/04/10 05:55:12;;;;;;;2.03;0.85;;;;;;;;;;5059664;28;20121;-80
2022/04/10 05:57:38;;;;;;;1.73;0.55;;;;;;;;;;5040881;28;20082;-79
2022/04/10 06:00:05;;;;;;;2.60;0.80;;;;;;;;;;5076597;28;20405;-79
2022/04/10 06:02:31;;;;;;;2.00;0.80;;;;;;;;;;5063485;28;20032;-80
2022/04/10 06:04:57;;;;;;;3.28;1.10;;;;;;;;;;5079183;28;20093;-81
2022/04/10 06:07:22;;;;;;;2.78;0.95;;;;;;;;;;5080167;28;20031;-79
2022/04/10 06:09:48;;;;;;;2.22;1.02;;;;;;;;;;5079816;28;20046;-80
2022/04/10 06:12:13;;;;;;;2.45;1.00;;;;;;;;;;5079778;28;20102;-79
2022/04/10 06:14:39;;;;;;;2.60;0.93;;;;;;;;;;5079566;28;20061;-78
2022/04/10 06:17:04;;;;;;;2.45;1.25;;;;;;;;;;5096454;28;20392;-78
2022/04/10 06:19:30;;;;;;;3.13;1.00;;;;;;;;;;5095972;28;20417;-79
2022/04/10 06:21:56;;;;;;;3.05;1.00;;;;;;;;;;5079003;28;20070;-79
2022/04/10 06:24:21;;;;;;;4.45;0.98;;;;;;;;;;5078336;28;20043;-78
2022/04/10 06:26:49;;;;;;;4.13;1.33;;;;;;;;;;5062911;28;20401;-79
2022/04/10 06:29:15;;;;;;;3.20;1.08;;;;;;;;;;5062973;28;20027;-81
2022/04/10 06:31:41;;;;;;;7.22;1.40;;;;;;;;;;5062771;28;20114;-81
2022/04/10 06:34:06;;;;;;;5.28;1.10;;;;;;;;;;5078599;28;20151;-84
2022/04/10 06:36:32;;;;;;;2.20;0.90;;;;;;;;;;5045579;28;20034;-80
2022/04/10 06:38:57;;;;;;;3.08;1.13;;;;;;;;;;5062577;28;20447;-80
2022/04/10 06:41:23;;;;;;;2.53;1.13;;;;;;;;;;5059117;28;20050;-80
2022/04/10 06:43:48;;;;;;;2.88;1.25;;;;;;;;;;5042720;28;20452;-79
2022/04/10 06:46:14;;;;;;;3.33;1.20;;;;;;;;;;5091827;28;20533;-80
2022/04/10 06:48:39;;;;;;;6.50;1.50;;;;;;;;;;5042282;28;20098;-80
2022/04/10 06:51:05;;;;;;;2.70;1.10;;;;;;;;;;5058848;28;20410;-80
2022/04/10 06:53:30;;;;;;;3.78;1.30;;;;;;;;;;5058980;28;20070;-79
2022/04/10 06:55:55;;;;;;;2.75;1.20;;;;;;;;;;5076349;28;20032;-80
2022/04/10 06:58:22;;;;;;;2.05;1.20;;;;;;;;;;5025776;28;20462;-81
2022/04/10 07:00:52;;;;;;;5.07;1.90;;;;;;;;;;5042954;28;20032;-81
2022/04/10 07:03:17;;;;;;;8.40;2.17;;;;;;;;;;5025227;28;20058;-81
2022/04/10 07:05:43;;;;;;;6.18;1.50;;;;;;;;;;5042187;28;20028;-81
2022/04/10 07:08:08;;;;;;;3.03;1.13;;;;;;;;;;5042257;28;20034;-81
2022/04/10 07:10:34;;;;;;;6.25;2.22;;;;;;;;;;5042046;28;20482;-81
2022/04/10 07:13:00;;;;;;;6.28;1.42;;;;;;;;;;5058520;28;20027;-81
2022/04/10 07:15:25;;;;;;;12.75;1.90;;;;;;;;;;5058524;28;20032;-82
2022/04/10 07:17:52;;;;;;;4.03;1.20;;;;;;;;;;5058772;28;20031;-82
2022/04/10 07:20:17;;;;;;;4.65;1.77;;;;;;;;;;5078237;28;20130;-81
2022/04/10 07:25:26;;;;;;;5.68;1.52;;;;;;;;;;5083324;28;20038;-82
2022/04/10 07:27:52;;;;;;;5.65;1.90;;;;;;;;;;5078306;28;20043;-82
2022/04/10 07:30:17;;;;;;;6.97;1.40;;;;;;;;;;5044802;28;20031;-82
2022/04/10 07:32:50;;;;;;;4.55;1.50;;;;;;;;;;5074449;28;20039;-82
2022/04/10 07:35:16;;;;;;;5.93;1.77;;;;;;;;;;5045296;28;20027;-82
2022/04/10 07:37:41;;;;;;;5.13;1.73;;;;;;;;;;5078224;28;20042;-82
2022/04/10 07:40:07;;;;;;;6.25;1.65;;;;;;;;;;5077076;28;20043;-82
2022/04/10 07:42:38;;;;;;;5.05;1.80;;;;;;;;;;5052350;28;20414;-82
2022/04/10 07:45:04;;;;;;;6.30;1.42;;;;;;;;;;5074544;28;20031;-82
2022/04/10 07:47:31;;;;;;;4.38;1.65;;;;;;;;;;5069128;28;20123;-82
2022/04/10 07:49:56;;;;;;;8.70;2.13;;;;;;;;;;5077728;28;20036;-82
2022/04/10 07:52:22;;;;;;;5.18;1.70;;;;;;;;;;5077600;28;20517;-82
2022/04/10 07:54:48;;;;;;;7.72;1.83;;;;;;;;;;5060819;28;20077;-82
2022/04/10 07:57:14;;;;;;;7.18;3.50;;;;;;;;;;5074426;28;20090;-82
2022/04/10 07:59:40;;;;;;;7.38;3.25;;;;;;;;;;5020763;28;20039;-82
2022/04/10 08:02:06;;;;;;;10.02;2.10;;;;;;;;;;5040616;28;20044;-82
2022/04/10 08:04:31;;;;;;;7.32;2.42;;;;;;;;;;5024504;28;20041;-82
2022/04/10 08:06:57;;;;;;;6.20;2.42;;;;;;;;;;5040873;28;20036;-82
2022/04/10 08:09:22;;;;;;;6.40;2.08;;;;;;;;;;5024231;28;20039;-82
2022/04/10 08:11:47;;;;;;;7.75;1.98;;;;;;;;;;5024136;28;20097;-83
2022/04/10 08:14:13;;;;;;;6.95;2.50;;;;;;;;;;5046024;28;20039;-82
2022/04/10 08:16:39;;;;;;;7.72;2.00;;;;;;;;;;5043863;28;20172;-83
2022/04/10 08:19:04;;;;;;;5.38;2.35;;;;;;;;;;5043808;28;20049;-82
2022/04/10 08:21:29;;;;;;;4.65;2.08;;;;;;;;;;5060650;28;20040;-82
2022/04/10 08:23:55;;;;;;;6.97;1.90;;;;;;;;;;5076543;28;20032;-81
2022/04/10 08:26:20;;;;;;;7.78;2.00;;;;;;;;;;5060184;28;20031;-82
2022/04/10 08:28:46;;;;;;;6.07;2.38;;;;;;;;;;5060300;28;20027;-82
2022/04/10 08:31:11;;;;;;;8.43;2.00;;;;;;;;;;5076753;28;20027;-82
2022/04/10 08:33:37;;;;;;;5.78;2.05;;;;;;;;;;5060513;28;20116;-80
2022/04/10 08:36:02;;;;;;;11.70;2.40;;;;;;;;;;5043777;28;20039;-82
2022/04/10 08:38:29;;;;;;;7.88;2.15;;;;;;;;;;5076790;28;20443;-82
2022/04/10 08:40:58;;;;;;;4.40;1.77;;;;;;;;;;5076566;28;20035;-82
2022/04/10 08:43:25;;;;;;;7.47;2.35;;;;;;;;;;5043839;28;20032;-83
2022/04/10 08:45:50;;;;;;;6.97;2.28;;;;;;;;;;5059431;28;20043;-82
2022/04/10 08:48:15;;;;;;;5.90;2.10;;;;;;;;;;5044044;28;20073;-81
2022/04/10 08:50:41;;;;;;;8.52;1.98;;;;;;;;;;5076297;28;20092;-81
2022/04/10 08:53:07;;;;;;;8.95;2.72;;;;;;;;;;5054987;28;20463;-81
2022/04/10 08:55:32;;;;;;;9.93;2.83;;;;;;;;;;5031091;28;20044;-81
2022/04/10 08:57:57;;;;;;;9.30;2.70;;;;;;;;;;5060227;28;20032;-80
2022/04/10 09:00:24;;;;;;;6.53;2.65;;;;;;;;;;5023348;28;20028;-80
2022/04/10 09:02:50;;;;;;;7.22;2.20;;;;;;;;;;5057035;28;20028;-80
2022/04/10 09:05:25;;;;;;;8.30;2.78;;;;;;;;;;5056463;28;20168;-80
2022/04/10 09:08:12;;;;;;;10.32;2.72;;;;;;;;;;5040110;28;20032;-80
2022/04/10 09:10:54;;;;;;;5.25;2.00;;;;;;;;;;5056077;28;20039;-81
2022/04/10 09:13:36;;;;;;;7.18;2.00;;;;;;;;;;5073267;28;20043;-80
2022/04/10 09:16:05;;;;;;;9.45;2.65;;;;;;;;;;5042795;28;20032;-80
2022/04/10 09:18:47;;;;;;;5.93;1.60;;;;;;;;;;5094122;28;20032;-80
2022/04/10 09:21:13;;;;;;;5.30;2.00;;;;;;;;;;5061779;28;20047;-80
2022/04/10 09:23:39;;;;;;;5.68;2.08;;;;;;;;;;5076686;28;20520;-80
2022/04/10 09:26:04;;;;;;;7.00;1.42;;;;;;;;;;5060410;28;20031;-83
2022/04/10 09:28:59;;;;;;;6.68;1.70;;;;;;;;;;5076209;28;20493;-83
2022/04/10 09:31:32;;;;;;;7.38;1.83;;;;;;;;;;5054973;28;20044;-84
2022/04/10 09:34:01;;;;;;;4.95;2.00;;;;;;;;;;5043981;28;20404;-84
2022/04/10 09:36:30;;;;;;;4.55;1.30;;;;;;;;;;5062308;28;20028;-83
2022/04/10 09:38:56;;;;;;;7.70;1.80;;;;;;;;;;5047369;28;20045;-83
2022/04/10 09:41:21;;;;;;;3.25;1.25;;;;;;;;;;5060181;28;20070;-83
2022/04/10 09:43:47;;;;;;;3.50;1.40;;;;;;;;;;5043287;28;20075;-83
2022/04/10 09:46:13;;;;;;;5.18;1.80;;;;;;;;;;5043754;28;20380;-83
2022/04/10 09:48:38;;;;;;;4.63;1.20;;;;;;;;;;5043529;28;20043;-83
2022/04/10 09:51:04;;;;;;;6.13;1.80;;;;;;;;;;5026624;28;20119;-83
2022/04/10 09:53:32;;;;;;;4.55;1.10;;;;;;;;;;5076352;28;20502;-81
2022/04/10 09:55:58;;;;;;;5.13;0.98;;;;;;;;;;5026715;28;20055;-82
2022/04/10 09:58:23;;;;;;;7.50;1.02;;;;;;;;;;5059693;28;20036;-83
2022/04/10 10:00:51;;;;;;;5.28;1.45;;;;;;;;;;5042756;28;20046;-84
2022/04/10 10:03:17;;;;;;;5.05;1.85;;;;;;;;;;5059899;28;20047;-83
2022/04/10 10:05:43;;;;;;;5.85;1.20;;;;;;;;;;5076396;28;20042;-84
2022/04/10 10:08:09;;;;;;;9.32;1.33;;;;;;;;;;5057826;28;20425;-83
2022/04/10 10:10:36;;;;;;;5.38;1.15;;;;;;;;;;5043092;28;20028;-83
2022/04/10 10:13:04;;;;;;;6.78;1.33;;;;;;;;;;5042980;28;20028;-84
2022/04/10 10:15:29;;;;;;;6.85;1.23;;;;;;;;;;5047068;28;20489;-83
2022/04/10 10:17:55;;;;;;;7.53;1.83;;;;;;;;;;5066801;28;20051;-83
2022/04/10 10:20:21;;;;;;;7.50;1.27;;;;;;;;;;5026300;28;20039;-83
2022/04/10 10:22:46;;;;;;;6.25;1.55;;;;;;;;;;5043236;28;20391;-84
2022/04/10 10:25:36;;;;;;;8.05;1.20;;;;;;;;;;5046633;28;20134;-83
2022/04/10 10:28:33;;;;;;;5.65;1.33;;;;;;;;;;5081247;28;20051;-84
2022/04/10 10:31:20;;;;;;;7.85;3.00;;;;;;;;;;5063440;28;20036;-83
2022/04/10 10:33:55;;;;;;;8.73;2.38;;;;;;;;;;5042586;28;20509;-83
2022/04/10 10:36:26;;;;;;;7.82;2.30;;;;;;;;;;5042883;28;20047;-80
2022/04/10 10:38:53;;;;;;;4.95;2.63;;;;;;;;;;5042660;28;20028;-80
2022/04/10 10:41:19;;;;;;;8.38;2.30;;;;;;;;;;5056534;28;20050;-81
2022/04/10 10:43:45;;;;;;;9.90;2.42;;;;;;;;;;5096035;28;20489;-80
2022/04/10 10:46:32;;;;;;;8.82;3.38;;;;;;;;;;5078634;28;20059;-81
2022/04/10 10:49:16;;;;;;;7.15;2.28;;;;;;;;;;5080002;28;20038;-81
2022/04/10 10:51:50;;;;;;;6.10;1.70;;;;;;;;;;5078022;28;20040;-81
2022/04/10 10:54:30;;;;;;;8.02;2.25;;;;;;;;;;5079699;28;20031;-81
2022/04/10 10:56:55;;;;;;;9.88;2.22;;;;;;;;;;5067849;28;20457;-80
2022/04/10 10:59:39;;;;;;;9.35;2.22;;;;;;;;;;5075174;28;20032;-80
2022/04/10 11:02:11;;;;;;;3.85;1.60;;;;;;;;;;5042278;28;20123;-80
2022/04/10 11:04:41;;;;;;;4.93;1.55;;;;;;;;;;5042899;28;20032;-80
2022/04/10 11:07:11;;;;;;;8.57;1.88;;;;;;;;;;5042473;28;20032;-81
2022/04/10 11:09:47;;;;;;;5.32;1.50;;;;;;;;;;5058841;28;20036;-81
2022/04/10 11:12:13;;;;;;;4.63;2.05;;;;;;;;;;5042313;28;20032;-81
2022/04/10 11:14:41;;;;;;;5.57;1.60;;;;;;;;;;5058797;28;20032;-81
2022/04/10 11:17:17;;;;;;;5.10;2.00;;;;;;;;;;5075630;28;20040;-80
2022/04/10 11:19:52;;;;;;;4.85;1.33;;;;;;;;;;5058214;28;20073;-80
2022/04/10 11:22:25;;;;;;;6.68;1.40;;;;;;;;;;5058921;28;20047;-80
2022/04/10 11:24:52;;;;;;;5.05;1.25;;;;;;;;;;5044875;28;20024;-80
2022/04/10 11:27:50;;;;;;;5.18;1.38;;;;;;;;;;5078372;28;20046;-80
2022/04/10 11:30:22;;;;;;;5.25;1.70;;;;;;;;;;5061387;28;20387;-80
2022/04/10 11:32:48;;;;;;;;;;;;;;;;;;5078913;28;20067;-80
2022/04/10 11:35:18;;;;;;;4.47;1.20;;;;;;;;;;5078148;28;19912;-80
2022/04/10 11:37:46;;;;;;;5.47;1.30;;;;;;;;;;5045434;28;20028;-81
2022/04/10 11:40:12;;;;;;;3.30;1.10;;;;;;;;;;5041332;28;20097;-81
2022/04/10 11:42:38;;;;;;;5.80;1.70;;;;;;;;;;5040354;28;20534;-80
2022/04/10 11:45:04;;;;;;;4.38;1.52;;;;;;;;;;5044981;28;20093;-81
2022/04/10 11:47:30;;;;;;;7.80;1.58;;;;;;;;;;5044848;28;20039;-81
2022/04/10 11:49:55;;;;;;;4.47;1.40;;;;;;;;;;5077533;28;20035;-81
2022/04/10 11:52:21;;;;;;;6.82;1.40;;;;;;;;;;5061160;28;20043;-80
2022/04/10 11:54:51;;;;;;;4.20;1.48;;;;;;;;;;5060853;28;20098;-81
2022/04/10 11:57:16;;;;;;;4.32;1.30;;;;;;;;;;5057519;28;20127;-80
2022/04/10 11:59:43;;;;;;;6.40;2.25;;;;;;;;;;5040424;28;20406;-82
2022/04/10 12:02:09;;;;;;;6.13;2.42;;;;;;;;;;5057637;28;20520;-80
2022/04/10 12:04:38;;;;;;;7.45;1.45;;;;;;;;;;5037682;28;20040;-82
2022/04/10 12:07:16;;;;;;;8.57;1.73;;;;;;;;;;5040358;28;20111;-84
2022/04/10 12:09:42;;;;;;;5.28;1.25;;;;;;;;;;5054125;28;20550;-80
2022/04/10 12:12:08;;;;;;;7.43;2.10;;;;;;;;;;5040805;28;20474;-80
2022/04/10 12:14:34;;;;;;;3.30;1.40;;;;;;;;;;5040906;28;20027;-80
2022/04/10 12:17:00;;;;;;;6.03;1.70;;;;;;;;;;5064593;28;20090;-80
2022/04/10 12:19:34;;;;;;;9.05;2.47;;;;;;;;;;5057128;28;20044;-81
2022/04/10 12:22:03;;;;;;;5.35;2.30;;;;;;;;;;5040419;28;20044;-81
2022/04/10 12:24:29;;;;;;;9.90;2.80;;;;;;;;;;5036199;28;20032;-81
2022/04/10 12:26:54;;;;;;;10.85;3.25;;;;;;;;;;5077457;28;20073;-80
2022/04/10 12:29:20;;;;;;;11.55;3.40;;;;;;;;;;5043937;28;20027;-81
2022/04/10 12:31:48;;;;;;;10.02;3.50;;;;;;;;;;5041196;28;20043;-81
2022/04/10 12:34:13;;;;;;;6.93;3.00;;;;;;;;;;5041402;28;20060;-81
2022/04/10 12:36:51;;;;;;;8.50;2.72;;;;;;;;;;5024160;28;20032;-81
2022/04/10 12:39:26;;;;;;;8.35;3.30;;;;;;;;;;5041786;28;20114;-81
2022/04/10 12:42:08;;;;;;;8.20;2.90;;;;;;;;;;5057429;28;20044;-80
2022/04/10 12:44:36;;;;;;;9.45;2.28;;;;;;;;;;5057459;28;20038;-80
2022/04/10 12:47:01;;;;;;;7.95;2.53;;;;;;;;;;5041000;28;20032;-81
2022/04/10 12:49:27;;;;;;;10.23;2.70;;;;;;;;;;5057240;28;20039;-80
2022/04/10 12:52:00;;;;;;;6.30;2.58;;;;;;;;;;5056528;28;20146;-81
2022/04/10 12:54:37;;;;;;;9.45;2.58;;;;;;;;;;5040371;28;20114;-81
2022/04/10 12:57:04;;;;;;;7.40;1.85;;;;;;;;;;5065691;28;20070;-81
2022/04/10 12:59:39;;;;;;;12.35;2.33;;;;;;;;;;5038370;28;20082;-81
2022/04/10 13:02:09;;;;;;;7.78;2.13;;;;;;;;;;5040645;28;20028;-81
2022/04/10 13:04:35;;;;;;;7.30;1.92;;;;;;;;;;5024218;28;20150;-80
2022/04/10 13:07:00;;;;;;;6.88;1.70;;;;;;;;;;5056444;28;20520;-81
2022/04/10 13:09:27;;;;;;;9.27;2.10;;;;;;;;;;5040170;28;20032;-82
2022/04/10 13:11:53;;;;;;;9.43;2.15;;;;;;;;;;5059702;28;20063;-81
2022/04/10 13:14:18;;;;;;;7.13;1.80;;;;;;;;;;5060283;28;20406;-81
2022/04/10 13:16:46;;;;;;;8.20;2.00;;;;;;;;;;5048942;28;20028;-81
2022/04/10 13:19:16;;;;;;;7.10;1.45;;;;;;;;;;5045831;28;20055;-81
2022/04/10 13:21:43;;;;;;;8.98;1.95;;;;;;;;;;5064026;28;20051;-81
2022/04/10 13:24:09;;;;;;;10.80;2.10;;;;;;;;;;5053609;28;20092;-81
2022/04/10 13:26:36;;;;;;;6.78;2.00;;;;;;;;;;5046506;28;20054;-81
2022/04/10 13:29:05;;;;;;;7.75;2.00;;;;;;;;;;5049079;28;20118;-81
2022/04/10 13:31:34;;;;;;;7.28;1.88;;;;;;;;;;5071349;28;20032;-81
2022/04/10 13:33:59;;;;;;;11.60;2.58;;;;;;;;;;5043915;28;20038;-81
2022/04/10 13:36:24;;;;;;;7.03;1.40;;;;;;;;;;5076149;28;20032;-81
2022/04/10 13:38:50;;;;;;;9.02;2.10;;;;;;;;;;5059808;28;20055;-81
2022/04/10 13:41:15;;;;;;;7.82;2.20;;;;;;;;;;5043624;28;20498;-81
2022/04/10 13:43:41;;;;;;;8.88;2.45;;;;;;;;;;5043950;28;20032;-82
2022/04/10 13:46:06;;;;;;;6.30;1.88;;;;;;;;;;5058640;28;20038;-81
2022/04/10 13:48:32;;;;;;;9.45;1.70;;;;;;;;;;5059717;28;20043;-81
2022/04/10 13:50:58;;;;;;;11.35;1.45;;;;;;;;;;5050405;28;20039;-81
2022/04/10 13:53:23;;;;;;;11.13;2.25;;;;;;;;;;5076661;28;20028;-81
2022/04/10 13:55:48;;;;;;;6.75;1.67;;;;;;;;;;5076205;28;20036;-81
2022/04/10 13:58:14;;;;;;;6.35;1.70;;;;;;;;;;5063275;28;20032;-81
2022/04/10 14:00:39;;;;;;;6.32;1.58;;;;;;;;;;5079701;28;20391;-81
2022/04/10 14:03:05;;;;;;;6.15;1.50;;;;;;;;;;5056265;28;20050;-81
2022/04/10 14:05:31;;;;;;;8.98;1.45;;;;;;;;;;5059485;28;20119;-81
2022/04/10 14:07:56;;;;;;;5.38;1.58;;;;;;;;;;5043046;28;20036;-81
2022/04/10 14:10:22;;;;;;;4.68;1.65;;;;;;;;;;5059226;28;20044;-81
2022/04/10 14:12:47;;;;;;;4.00;1.40;;;;;;;;;;5076373;28;20035;-81
2022/04/10 14:15:13;;;;;;;8.70;1.63;;;;;;;;;;5042821;28;20040;-81
2022/04/10 14:17:38;;;;;;;6.43;1.40;;;;;;;;;;5061861;28;20502;-81
2022/04/10 14:20:04;;;;;;;6.80;1.70;;;;;;;;;;5045573;28;20036;-81
2022/04/10 14:22:29;;;;;;;5.38;1.20;;;;;;;;;;5076117;28;20032;-80
2022/04/10 14:24:55;;;;;;;3.20;1.38;;;;;;;;;;5076030;28;20043;-81
2022/04/10 14:27:20;;;;;;;4.72;0.88;;;;;;;;;;5076230;28;20032;-80
2022/04/10 14:29:46;;;;;;;7.78;1.30;;;;;;;;;;5078180;28;20031;-80
2022/04/10 14:32:12;;;;;;;5.97;1.40;;;;;;;;;;5078635;28;20053;-80
2022/04/10 14:34:37;;;;;;;2.50;0.90;;;;;;;;;;5062828;28;20043;-80
2022/04/10 14:37:04;;;;;;;3.60;1.42;;;;;;;;;;5062639;28;20406;-81
2022/04/10 14:39:29;;;;;;;3.28;1.10;;;;;;;;;;5062758;28;20054;-81
2022/04/10 14:41:54;;;;;;;4.78;1.38;;;;;;;;;;5079283;28;20516;-80
2022/04/10 14:44:20;;;;;;;4.35;0.93;;;;;;;;;;5079217;28;20038;-80
2022/04/10 14:46:45;;;;;;;5.25;1.20;;;;;;;;;;5062042;28;20035;-81